Time;durP1;ratioP1;P1;durP2;ratioP2;P2;SDS_P1;SDS_P2;PMS_P1;PMS_P2;Temp;Humidity;BMP_temperature;BMP_pressure;BME280_temperature;BME280_humidity;BME280_pressure;Samples;Min_cycle;Max_cycle;Signal;HPM_P1;HPM_P2
2023/08/30 00:01:51;;;;;;;5.03;2.50;;;;;;;;;;4970276;28;20027;-83
2023/08/30 00:04:16;;;;;;;4.28;2.20;;;;;;;;;;4973100;28;20034;-83
2023/08/30 00:06:42;;;;;;;3.85;2.10;;;;;;;;;;4975451;28;20125;-83
2023/08/30 00:09:08;;;;;;;6.75;2.78;;;;;;;;;;4952141;28;20110;-81
2023/08/30 00:11:34;;;;;;;4.53;2.13;;;;;;;;;;4974854;28;20040;-83
2023/08/30 00:14:05;;;;;;;4.68;2.33;;;;;;;;;;4980805;28;20062;-82
2023/08/30 00:16:31;;;;;;;4.03;1.95;;;;;;;;;;4983779;28;20022;-82
2023/08/30 00:18:58;;;;;;;7.78;2.05;;;;;;;;;;4967995;28;20103;-84
2023/08/30 00:21:23;;;;;;;3.78;1.77;;;;;;;;;;4956433;28;20034;-82
2023/08/30 00:23:50;;;;;;;3.53;2.03;;;;;;;;;;4968167;28;20066;-82
2023/08/30 00:26:16;;;;;;;3.80;2.20;;;;;;;;;;4968213;28;20030;-84
2023/08/30 00:28:44;;;;;;;5.43;1.88;;;;;;;;;;4967877;28;20039;-81
2023/08/30 00:31:10;;;;;;;3.67;1.92;;;;;;;;;;4985332;28;20077;-82
2023/08/30 00:33:35;;;;;;;3.35;1.55;;;;;;;;;;4971717;28;20047;-83
2023/08/30 00:36:01;;;;;;;3.80;1.92;;;;;;;;;;4997224;28;20031;-83
2023/08/30 00:38:27;;;;;;;3.22;1.80;;;;;;;;;;4982476;28;20031;-83
2023/08/30 00:40:53;;;;;;;3.38;1.90;;;;;;;;;;4982196;28;20023;-83
2023/08/30 00:43:19;;;;;;;5.78;1.70;;;;;;;;;;4982536;28;20026;-82
2023/08/30 00:45:46;;;;;;;4.18;2.10;;;;;;;;;;4998594;28;20046;-83
2023/08/30 00:48:14;;;;;;;3.13;1.45;;;;;;;;;;4980253;28;20065;-83
2023/08/30 00:50:41;;;;;;;7.60;1.98;;;;;;;;;;4952990;28;20042;-83
2023/08/30 00:53:07;;;;;;;3.95;1.58;;;;;;;;;;4965188;28;20031;-83
2023/08/30 00:55:34;;;;;;;3.85;1.85;;;;;;;;;;4964877;28;20093;-83
2023/08/30 00:58:01;;;;;;;4.30;1.83;;;;;;;;;;4980429;28;20039;-84
2023/08/30 01:00:30;;;;;;;6.45;1.80;;;;;;;;;;4948515;28;20035;-84
2023/08/30 01:02:58;;;;;;;3.95;1.95;;;;;;;;;;4981410;28;20025;-83
2023/08/30 01:05:24;;;;;;;3.40;1.67;;;;;;;;;;4965196;28;20101;-83
2023/08/30 01:07:50;;;;;;;3.83;1.58;;;;;;;;;;4948850;28;20487;-84
2023/08/30 01:10:18;;;;;;;4.63;1.80;;;;;;;;;;4947417;28;20035;-83
2023/08/30 01:12:48;;;;;;;4.43;1.75;;;;;;;;;;4948635;28;20537;-84
2023/08/30 01:15:20;;;;;;;7.47;1.77;;;;;;;;;;4963923;28;20034;-82
2023/08/30 01:17:51;;;;;;;3.75;1.65;;;;;;;;;;4981063;28;20043;-83
2023/08/30 01:20:19;;;;;;;4.32;1.98;;;;;;;;;;4962425;28;20035;-83
2023/08/30 01:22:45;;;;;;;4.03;1.80;;;;;;;;;;4961856;28;20034;-83
2023/08/30 01:25:23;;;;;;;5.90;1.90;;;;;;;;;;4979161;28;20280;-85
2023/08/30 01:27:49;;;;;;;5.55;2.00;;;;;;;;;;4963893;28;20041;-83
2023/08/30 01:30:15;;;;;;;3.78;1.90;;;;;;;;;;4963559;28;20035;-83
2023/08/30 01:32:41;;;;;;;6.13;2.15;;;;;;;;;;4948111;28;20038;-83
2023/08/30 01:35:08;;;;;;;4.05;1.60;;;;;;;;;;4964194;28;20100;-83
2023/08/30 01:37:35;;;;;;;5.72;1.98;;;;;;;;;;4964881;28;20031;-83
2023/08/30 01:40:01;;;;;;;5.32;1.50;;;;;;;;;;4980177;28;20039;-83
2023/08/30 01:42:29;;;;;;;4.95;1.90;;;;;;;;;;4948471;28;20050;-83
2023/08/30 01:44:57;;;;;;;4.78;1.83;;;;;;;;;;4965467;28;20039;-84
2023/08/30 01:47:23;;;;;;;5.43;1.80;;;;;;;;;;4982511;28;20046;-83
2023/08/30 01:49:49;;;;;;;5.57;2.00;;;;;;;;;;4964053;28;20277;-82
2023/08/30 01:52:17;;;;;;;5.00;1.90;;;;;;;;;;4948257;28;20046;-83
2023/08/30 01:54:44;;;;;;;5.93;1.75;;;;;;;;;;4949350;28;20043;-82
2023/08/30 01:57:12;;;;;;;4.22;1.83;;;;;;;;;;4980628;28;20441;-83
2023/08/30 01:59:38;;;;;;;6.10;1.77;;;;;;;;;;4965671;28;20043;-84
2023/08/30 02:02:04;;;;;;;8.85;1.90;;;;;;;;;;4967832;28;20034;-83
2023/08/30 02:04:31;;;;;;;3.15;1.80;;;;;;;;;;4967994;28;20033;-83
2023/08/30 02:07:00;;;;;;;7.23;1.87;;;;;;;;;;4984609;28;20681;-83
2023/08/30 02:09:34;;;;;;;5.57;1.90;;;;;;;;;;4983294;28;20117;-85
2023/08/30 02:12:00;;;;;;;5.40;2.03;;;;;;;;;;4952528;28;20567;-83
2023/08/30 02:14:26;;;;;;;4.30;2.10;;;;;;;;;;4982922;28;20031;-83
2023/08/30 02:16:55;;;;;;;4.70;2.13;;;;;;;;;;4966751;28;20034;-84
2023/08/30 02:19:21;;;;;;;5.63;2.10;;;;;;;;;;4951100;28;20034;-83
2023/08/30 02:21:48;;;;;;;7.35;2.20;;;;;;;;;;4951727;28;20061;-85
2023/08/30 02:24:14;;;;;;;5.53;2.25;;;;;;;;;;4967766;28;20557;-84
2023/08/30 02:26:39;;;;;;;4.70;2.35;;;;;;;;;;4984208;28;20107;-83
2023/08/30 02:29:06;;;;;;;5.10;2.10;;;;;;;;;;4968673;28;20097;-83
2023/08/30 02:31:31;;;;;;;3.80;2.20;;;;;;;;;;4952318;28;20043;-83
2023/08/30 02:33:57;;;;;;;7.57;2.78;;;;;;;;;;4970273;28;20031;-82
2023/08/30 02:36:22;;;;;;;8.63;2.80;;;;;;;;;;4953687;28;20074;-82
2023/08/30 02:38:49;;;;;;;5.57;2.45;;;;;;;;;;4988969;28;20046;-83
2023/08/30 02:41:14;;;;;;;4.53;2.85;;;;;;;;;;4986746;28;20027;-83
2023/08/30 02:43:40;;;;;;;5.13;3.00;;;;;;;;;;4954172;28;20038;-83
2023/08/30 02:46:06;;;;;;;5.72;2.80;;;;;;;;;;4984927;28;20113;-83
2023/08/30 02:48:32;;;;;;;6.90;2.47;;;;;;;;;;4968952;28;20503;-82
2023/08/30 02:50:57;;;;;;;6.75;2.80;;;;;;;;;;4968689;28;20054;-82
2023/08/30 02:53:23;;;;;;;8.82;2.95;;;;;;;;;;4951845;28;20553;-83
2023/08/30 02:55:49;;;;;;;7.93;3.10;;;;;;;;;;4970388;28;20053;-80
2023/08/30 02:58:14;;;;;;;6.00;3.38;;;;;;;;;;4983390;28;20035;-84
2023/08/30 03:00:40;;;;;;;8.93;3.17;;;;;;;;;;4983488;28;20066;-83
2023/08/30 03:03:07;;;;;;;9.57;3.50;;;;;;;;;;4984494;28;20114;-83
2023/08/30 03:05:34;;;;;;;10.02;3.60;;;;;;;;;;4953068;28;20062;-83
2023/08/30 03:08:01;;;;;;;5.57;3.50;;;;;;;;;;4954452;28;20486;-84
2023/08/30 03:10:28;;;;;;;6.40;3.15;;;;;;;;;;4987083;28;20027;-83
2023/08/30 03:12:53;;;;;;;7.97;3.90;;;;;;;;;;4955488;28;20042;-82
2023/08/30 03:15:20;;;;;;;5.45;3.15;;;;;;;;;;4957627;28;20031;-82
2023/08/30 03:17:47;;;;;;;10.13;3.83;;;;;;;;;;4987999;28;20031;-83
2023/08/30 03:20:16;;;;;;;8.40;2.95;;;;;;;;;;4982520;28;20070;-83
2023/08/30 03:22:42;;;;;;;5.63;3.50;;;;;;;;;;4983300;28;20030;-83
2023/08/30 03:25:09;;;;;;;6.78;3.85;;;;;;;;;;4968047;28;20057;-83
2023/08/30 03:27:35;;;;;;;5.28;3.58;;;;;;;;;;4999923;28;20022;-83
2023/08/30 03:30:02;;;;;;;8.00;3.40;;;;;;;;;;4966667;28;20037;-83
2023/08/30 03:32:32;;;;;;;5.20;3.75;;;;;;;;;;4992779;28;20500;-84
2023/08/30 03:34:59;;;;;;;6.05;3.70;;;;;;;;;;4967822;28;20030;-83
2023/08/30 03:37:25;;;;;;;7.07;3.53;;;;;;;;;;4966632;28;20034;-83
2023/08/30 03:39:51;;;;;;;5.75;3.47;;;;;;;;;;4984679;28;20066;-83
2023/08/30 03:42:16;;;;;;;7.03;3.38;;;;;;;;;;4951302;28;20497;-82
2023/08/30 03:44:42;;;;;;;6.22;3.35;;;;;;;;;;4966468;28;20027;-83
2023/08/30 03:47:08;;;;;;;7.47;3.97;;;;;;;;;;4981927;28;20047;-83
2023/08/30 03:49:36;;;;;;;8.20;3.70;;;;;;;;;;4952153;28;20038;-83
2023/08/30 03:52:01;;;;;;;6.60;3.45;;;;;;;;;;4950311;28;20043;-84
2023/08/30 03:54:27;;;;;;;12.23;3.95;;;;;;;;;;4949878;28;20121;-84
2023/08/30 03:56:53;;;;;;;6.07;3.55;;;;;;;;;;4982585;28;20043;-83
2023/08/30 03:59:19;;;;;;;4.18;3.05;;;;;;;;;;4965863;28;20034;-84
2023/08/30 04:01:45;;;;;;;8.93;3.78;;;;;;;;;;4949994;28;20046;-83
2023/08/30 04:04:12;;;;;;;9.10;3.80;;;;;;;;;;4964640;28;20027;-85
2023/08/30 04:06:37;;;;;;;7.50;3.42;;;;;;;;;;4944920;28;20512;-82
2023/08/30 04:09:03;;;;;;;7.95;3.88;;;;;;;;;;4946331;28;20093;-84
2023/08/30 04:11:28;;;;;;;7.78;3.88;;;;;;;;;;4978190;28;20038;-83
2023/08/30 04:13:54;;;;;;;7.03;3.83;;;;;;;;;;4977173;28;20085;-84
2023/08/30 04:16:20;;;;;;;5.50;3.47;;;;;;;;;;4980336;28;20035;-81
2023/08/30 04:18:45;;;;;;;8.43;4.03;;;;;;;;;;4950042;28;20038;-83
2023/08/30 04:21:11;;;;;;;7.85;3.03;;;;;;;;;;4949910;28;20106;-83
2023/08/30 04:23:37;;;;;;;8.05;3.90;;;;;;;;;;4949972;28;20041;-83
2023/08/30 04:26:03;;;;;;;11.85;3.45;;;;;;;;;;4981318;28;20188;-84
2023/08/30 04:28:28;;;;;;;11.82;3.70;;;;;;;;;;4949227;28;20070;-84
2023/08/30 04:30:54;;;;;;;7.47;3.70;;;;;;;;;;4965863;28;20030;-83
2023/08/30 04:33:20;;;;;;;7.10;3.80;;;;;;;;;;4948767;28;20495;-83
2023/08/30 04:35:49;;;;;;;6.93;3.25;;;;;;;;;;4950257;28;20050;-83
2023/08/30 04:38:15;;;;;;;7.65;3.50;;;;;;;;;;4981563;28;20034;-84
2023/08/30 04:40:41;;;;;;;9.25;3.15;;;;;;;;;;4964540;28;20038;-84
2023/08/30 04:43:07;;;;;;;6.13;3.53;;;;;;;;;;4965053;28;20033;-82
2023/08/30 04:45:37;;;;;;;5.97;3.70;;;;;;;;;;4950030;28;20034;-84
2023/08/30 04:48:06;;;;;;;;;;;;;;;;;;4982573;28;20035;-83
2023/08/30 04:50:32;;;;;;;9.43;4.22;;;;;;;;;;4967320;28;19917;-83
2023/08/30 04:52:59;;;;;;;11.40;3.38;;;;;;;;;;4950549;28;20031;-83
2023/08/30 04:55:25;;;;;;;8.82;3.72;;;;;;;;;;4967435;28;20047;-83
2023/08/30 04:57:51;;;;;;;5.85;3.70;;;;;;;;;;4968577;28;20035;-82
2023/08/30 05:00:19;;;;;;;7.05;3.78;;;;;;;;;;4970146;28;20039;-81
2023/08/30 05:02:46;;;;;;;6.05;3.80;;;;;;;;;;4954944;28;20045;-85
2023/08/30 05:05:13;;;;;;;9.32;3.97;;;;;;;;;;4944874;28;20043;-84
2023/08/30 05:07:39;;;;;;;7.32;3.70;;;;;;;;;;4958795;28;20098;-83
2023/08/30 05:10:06;;;;;;;12.20;4.20;;;;;;;;;;4962177;28;20030;-83
2023/08/30 05:12:35;;;;;;;8.20;3.50;;;;;;;;;;4978179;28;20014;-82
2023/08/30 05:15:01;;;;;;;8.27;3.70;;;;;;;;;;4966059;28;20027;-84
2023/08/30 05:17:29;;;;;;;6.38;3.85;;;;;;;;;;4964628;28;20034;-83
2023/08/30 05:19:57;;;;;;;6.05;3.53;;;;;;;;;;4963149;28;20093;-83
2023/08/30 05:22:22;;;;;;;6.85;3.33;;;;;;;;;;4963840;28;20023;-82
2023/08/30 05:24:48;;;;;;;6.75;3.42;;;;;;;;;;4966036;28;20035;-83
2023/08/30 05:27:14;;;;;;;7.47;3.38;;;;;;;;;;4965902;28;20399;-82
2023/08/30 05:29:40;;;;;;;10.50;3.60;;;;;;;;;;4981220;28;20107;-84
2023/08/30 05:32:06;;;;;;;7.65;3.67;;;;;;;;;;4966279;28;20046;-84
2023/08/30 05:34:51;;;;;;;5.95;3.47;;;;;;;;;;4969964;28;20426;-84
2023/08/30 05:37:27;;;;;;;7.13;3.85;;;;;;;;;;4971428;28;20093;-84
2023/08/30 05:39:57;;;;;;;5.70;3.42;;;;;;;;;;4954285;28;20034;-83
2023/08/30 05:42:24;;;;;;;10.43;3.95;;;;;;;;;;4969988;28;20031;-82
2023/08/30 05:44:50;;;;;;;9.77;5.18;;;;;;;;;;4969892;28;20422;-84
2023/08/30 05:47:16;;;;;;;7.43;3.42;;;;;;;;;;4969680;28;20034;-84
2023/08/30 05:49:42;;;;;;;7.82;4.15;;;;;;;;;;4939422;28;20042;-84
2023/08/30 05:52:09;;;;;;;9.80;4.28;;;;;;;;;;4988068;28;20034;-83
2023/08/30 05:54:35;;;;;;;5.35;3.67;;;;;;;;;;4955780;28;20062;-85
2023/08/30 05:57:01;;;;;;;11.02;4.18;;;;;;;;;;4987645;28;20031;-84
2023/08/30 05:59:27;;;;;;;10.15;5.63;;;;;;;;;;4955724;28;20035;-84
2023/08/30 06:01:53;;;;;;;12.60;5.95;;;;;;;;;;4973139;28;20041;-84
2023/08/30 06:04:19;;;;;;;7.93;4.57;;;;;;;;;;4967581;28;20394;-83
2023/08/30 06:06:44;;;;;;;8.77;4.10;;;;;;;;;;4984491;28;20035;-83
2023/08/30 06:09:11;;;;;;;6.55;4.60;;;;;;;;;;4984779;28;20030;-82
2023/08/30 06:11:37;;;;;;;7.30;4.45;;;;;;;;;;5001137;28;20034;-84
2023/08/30 06:14:03;;;;;;;7.60;4.03;;;;;;;;;;4984422;28;20070;-84
2023/08/30 06:16:28;;;;;;;6.32;4.38;;;;;;;;;;4967610;28;20045;-84
2023/08/30 06:18:54;;;;;;;10.45;4.78;;;;;;;;;;4993484;28;20499;-85
2023/08/30 06:21:19;;;;;;;7.90;4.45;;;;;;;;;;4986250;28;20101;-84
2023/08/30 06:23:45;;;;;;;9.57;4.78;;;;;;;;;;4983746;28;20027;-85
2023/08/30 06:26:11;;;;;;;8.15;4.28;;;;;;;;;;4968141;28;20053;-84
2023/08/30 06:28:36;;;;;;;9.23;5.35;;;;;;;;;;4968123;28;20458;-85
2023/08/30 06:31:02;;;;;;;6.57;4.45;;;;;;;;;;4985551;28;20035;-84
2023/08/30 06:33:27;;;;;;;7.63;4.90;;;;;;;;;;4985043;28;20031;-82
2023/08/30 06:35:54;;;;;;;7.97;5.20;;;;;;;;;;4984856;28;20035;-85
2023/08/30 06:38:20;;;;;;;6.68;4.63;;;;;;;;;;4983579;28;20049;-83
2023/08/30 06:40:46;;;;;;;13.98;5.32;;;;;;;;;;4935627;28;20074;-83
2023/08/30 06:43:12;;;;;;;6.55;4.35;;;;;;;;;;4967520;28;20095;-84
2023/08/30 06:45:39;;;;;;;10.55;4.60;;;;;;;;;;4966374;28;20459;-85
2023/08/30 06:48:05;;;;;;;9.60;4.60;;;;;;;;;;4983919;28;20022;-84
2023/08/30 06:50:31;;;;;;;7.25;4.40;;;;;;;;;;4951041;28;20081;-84
2023/08/30 06:52:57;;;;;;;8.13;4.50;;;;;;;;;;4952441;28;20047;-85
2023/08/30 06:55:23;;;;;;;9.63;3.97;;;;;;;;;;4967551;28;20054;-83
2023/08/30 06:57:51;;;;;;;10.27;4.07;;;;;;;;;;4984401;28;20039;-83
2023/08/30 07:00:17;;;;;;;7.00;4.65;;;;;;;;;;4953217;28;20058;-85
2023/08/30 07:02:45;;;;;;;7.70;5.18;;;;;;;;;;4985624;28;20051;-84
2023/08/30 07:05:14;;;;;;;7.13;4.07;;;;;;;;;;4968115;28;20035;-83
2023/08/30 07:07:40;;;;;;;10.48;4.95;;;;;;;;;;4983347;28;20037;-84
2023/08/30 07:10:06;;;;;;;6.38;4.53;;;;;;;;;;4985161;28;20410;-84
2023/08/30 07:12:31;;;;;;;9.27;4.80;;;;;;;;;;4984088;28;20034;-83
2023/08/30 07:14:56;;;;;;;8.32;4.57;;;;;;;;;;4967253;28;20026;-84
2023/08/30 07:17:22;;;;;;;7.80;4.72;;;;;;;;;;4966853;28;20037;-85
2023/08/30 07:19:49;;;;;;;9.40;4.68;;;;;;;;;;4984487;28;20034;-83
2023/08/30 07:22:16;;;;;;;9.48;5.38;;;;;;;;;;4951390;28;20031;-84
2023/08/30 07:24:42;;;;;;;7.45;4.10;;;;;;;;;;4966977;28;20035;-85
2023/08/30 07:27:08;;;;;;;7.22;4.10;;;;;;;;;;4950248;28;20031;-84
2023/08/30 07:29:33;;;;;;;4.72;3.53;;;;;;;;;;4967393;28;20066;-84
2023/08/30 07:31:59;;;;;;;9.40;4.40;;;;;;;;;;4967044;28;20434;-83
2023/08/30 07:34:24;;;;;;;6.10;4.07;;;;;;;;;;4952874;28;20450;-84
2023/08/30 07:36:50;;;;;;;9.45;4.32;;;;;;;;;;4986373;28;20062;-83
2023/08/30 07:39:16;;;;;;;7.43;4.00;;;;;;;;;;4968709;28;20038;-84
2023/08/30 07:41:41;;;;;;;7.22;3.35;;;;;;;;;;4953095;28;20039;-83
2023/08/30 07:44:07;;;;;;;8.02;3.42;;;;;;;;;;4967013;28;20045;-84
2023/08/30 07:46:32;;;;;;;6.82;3.55;;;;;;;;;;4984158;28;20041;-83
2023/08/30 07:48:58;;;;;;;5.43;3.50;;;;;;;;;;4967312;28;20085;-84
2023/08/30 07:51:24;;;;;;;6.45;3.65;;;;;;;;;;4982665;28;20039;-84
2023/08/30 07:53:49;;;;;;;9.90;4.07;;;;;;;;;;4982760;28;20066;-85
2023/08/30 07:56:15;;;;;;;6.13;3.30;;;;;;;;;;4966494;28;20093;-84
2023/08/30 07:58:40;;;;;;;13.18;3.67;;;;;;;;;;4983773;28;20039;-83
2023/08/30 08:01:06;;;;;;;6.18;3.45;;;;;;;;;;4950735;28;20050;-84
2023/08/30 08:03:34;;;;;;;4.72;3.13;;;;;;;;;;4983406;28;20031;-84
2023/08/30 08:06:03;;;;;;;;;;;;;;;;;;4968239;28;20479;-83
2023/08/30 08:08:28;;;;;;;8.45;2.90;;;;;;;;;;4982772;28;19924;-83
2023/08/30 08:10:54;;;;;;;6.88;3.35;;;;;;;;;;4982812;28;20045;-84
2023/08/30 08:13:20;;;;;;;4.63;3.00;;;;;;;;;;4982494;28;20086;-83
2023/08/30 08:15:45;;;;;;;6.50;3.00;;;;;;;;;;4951345;28;20066;-83
2023/08/30 08:18:11;;;;;;;5.70;2.88;;;;;;;;;;4950922;28;20447;-83
2023/08/30 08:20:37;;;;;;;8.23;2.95;;;;;;;;;;4965960;28;20031;-84
2023/08/30 08:23:03;;;;;;;6.45;3.10;;;;;;;;;;4950507;28;20029;-84
2023/08/30 08:25:28;;;;;;;5.45;2.97;;;;;;;;;;4983720;28;20053;-82
2023/08/30 08:27:55;;;;;;;6.07;3.42;;;;;;;;;;4949545;28;20360;-82
2023/08/30 08:30:20;;;;;;;6.25;2.75;;;;;;;;;;4949077;28;20035;-83
2023/08/30 08:32:47;;;;;;;4.22;2.40;;;;;;;;;;4982004;28;20026;-83
2023/08/30 08:35:13;;;;;;;5.70;2.67;;;;;;;;;;4964753;28;20033;-84
2023/08/30 08:37:38;;;;;;;5.63;2.30;;;;;;;;;;4982702;28;20035;-82
2023/08/30 08:40:08;;;;;;;5.50;2.47;;;;;;;;;;4981649;28;20035;-82
2023/08/30 08:42:34;;;;;;;6.90;2.75;;;;;;;;;;4972320;28;20046;-83
2023/08/30 08:45:01;;;;;;;6.25;2.25;;;;;;;;;;4964780;28;20043;-82
2023/08/30 08:47:32;;;;;;;6.30;2.28;;;;;;;;;;4982299;28;20035;-83
2023/08/30 08:49:59;;;;;;;8.43;2.38;;;;;;;;;;4966417;28;20019;-84
2023/08/30 08:52:26;;;;;;;6.05;2.50;;;;;;;;;;4965552;28;20103;-83
2023/08/30 08:54:54;;;;;;;4.50;1.90;;;;;;;;;;4981690;28;20031;-83
2023/08/30 08:57:20;;;;;;;5.22;2.42;;;;;;;;;;4973459;28;20543;-83
2023/08/30 08:59:46;;;;;;;3.97;2.35;;;;;;;;;;4964582;28;20145;-84
2023/08/30 09:02:13;;;;;;;6.35;1.88;;;;;;;;;;4964171;28;20037;-83
2023/08/30 09:04:39;;;;;;;5.93;2.03;;;;;;;;;;4980429;28;20035;-83
2023/08/30 09:07:06;;;;;;;8.93;1.70;;;;;;;;;;4981234;28;20034;-83
2023/08/30 09:09:36;;;;;;;4.10;1.33;;;;;;;;;;4951762;28;20065;-84
2023/08/30 09:12:01;;;;;;;4.15;1.42;;;;;;;;;;4953367;28;20042;-84
2023/08/30 09:14:27;;;;;;;5.78;1.58;;;;;;;;;;4984967;28;20043;-84
2023/08/30 09:17:00;;;;;;;4.22;2.25;;;;;;;;;;4968607;28;20113;-84
2023/08/30 09:19:26;;;;;;;4.38;1.60;;;;;;;;;;4952622;28;20101;-85
2023/08/30 09:21:57;;;;;;;7.65;2.33;;;;;;;;;;4952974;28;20486;-84
2023/08/30 09:24:23;;;;;;;4.88;1.83;;;;;;;;;;4938795;28;20043;-84
2023/08/30 09:26:50;;;;;;;5.32;1.80;;;;;;;;;;4970022;28;20118;-84
2023/08/30 09:29:18;;;;;;;5.13;1.60;;;;;;;;;;4986523;28;20035;-84
2023/08/30 09:31:45;;;;;;;5.68;1.52;;;;;;;;;;4985589;28;20034;-84
2023/08/30 09:34:11;;;;;;;5.18;1.48;;;;;;;;;;4969695;28;20075;-83
2023/08/30 09:36:39;;;;;;;3.95;1.30;;;;;;;;;;4967811;28;20053;-83
2023/08/30 09:39:11;;;;;;;2.58;1.30;;;;;;;;;;4984207;28;20037;-84
2023/08/30 09:41:40;;;;;;;4.05;1.70;;;;;;;;;;4986487;28;20027;-83
2023/08/30 09:44:16;;;;;;;2.72;1.30;;;;;;;;;;4968211;28;20034;-82
2023/08/30 09:46:42;;;;;;;5.20;1.42;;;;;;;;;;4985987;28;20086;-82
2023/08/30 09:49:09;;;;;;;3.60;1.48;;;;;;;;;;4985990;28;20035;-84
2023/08/30 09:51:35;;;;;;;2.17;1.20;;;;;;;;;;4955936;28;20038;-83
2023/08/30 09:54:04;;;;;;;2.85;1.35;;;;;;;;;;4957041;28;20050;-84
2023/08/30 09:56:29;;;;;;;;;;;;;;;;;;4975086;28;20026;-83
2023/08/30 09:58:56;;;;;;;5.07;1.40;;;;;;;;;;4977234;28;19914;-85
2023/08/30 10:01:21;;;;;;;3.50;1.60;;;;;;;;;;4976974;28;20042;-84
2023/08/30 10:03:47;;;;;;;3.33;1.50;;;;;;;;;;4975817;28;20039;-84
2023/08/30 10:06:15;;;;;;;5.78;1.55;;;;;;;;;;4955824;28;20034;-84
2023/08/30 10:08:41;;;;;;;3.10;1.48;;;;;;;;;;4967852;28;20062;-84
2023/08/30 10:11:07;;;;;;;3.90;1.40;;;;;;;;;;4983602;28;20134;-82
2023/08/30 10:13:35;;;;;;;2.88;1.40;;;;;;;;;;4951327;28;20042;-82
2023/08/30 10:16:03;;;;;;;2.77;1.43;;;;;;;;;;4966639;28;20411;-84
2023/08/30 10:18:29;;;;;;;;;;;;;;;;;;4968426;28;20039;-84
2023/08/30 10:20:56;;;;;;;3.53;1.48;;;;;;;;;;4969550;28;19941;-85
2023/08/30 10:23:23;;;;;;;3.42;1.15;;;;;;;;;;4986334;28;20060;-82
2023/08/30 10:25:49;;;;;;;3.78;1.85;;;;;;;;;;4975950;28;20058;-83
2023/08/30 10:28:18;;;;;;;6.65;1.50;;;;;;;;;;4966853;28;20027;-83
2023/08/30 10:30:44;;;;;;;2.25;1.10;;;;;;;;;;4981253;28;20038;-83
2023/08/30 10:33:14;;;;;;;7.72;1.65;;;;;;;;;;4980031;28;20035;-83
2023/08/30 10:35:51;;;;;;;3.80;1.30;;;;;;;;;;4962615;28;20023;-83
2023/08/30 10:38:27;;;;;;;2.67;1.30;;;;;;;;;;4957317;28;20034;-83
2023/08/30 10:40:52;;;;;;;4.07;1.42;;;;;;;;;;4987591;28;20402;-84
2023/08/30 10:43:28;;;;;;;6.35;2.10;;;;;;;;;;4952019;28;20031;-84
2023/08/30 10:46:01;;;;;;;2.58;1.33;;;;;;;;;;4967528;28;20034;-83
2023/08/30 10:48:36;;;;;;;3.75;1.55;;;;;;;;;;4968403;28;20049;-84
2023/08/30 10:51:07;;;;;;;3.15;1.30;;;;;;;;;;4984821;28;20450;-84
2023/08/30 10:53:33;;;;;;;3.65;1.40;;;;;;;;;;4984359;28;20038;-82
2023/08/30 10:56:09;;;;;;;3.10;1.40;;;;;;;;;;4967481;28;20039;-84
2023/08/30 10:58:38;;;;;;;4.90;1.63;;;;;;;;;;4983539;28;20031;-83
2023/08/30 11:01:06;;;;;;;6.03;1.85;;;;;;;;;;4968760;28;20027;-84
2023/08/30 11:03:32;;;;;;;3.83;1.30;;;;;;;;;;4967474;28;20030;-83
2023/08/30 11:06:01;;;;;;;3.47;1.73;;;;;;;;;;4950922;28;20034;-83
2023/08/30 11:08:28;;;;;;;4.22;2.00;;;;;;;;;;4952031;28;20491;-83
2023/08/30 11:11:04;;;;;;;3.22;1.75;;;;;;;;;;4952064;28;20069;-83
2023/08/30 11:13:30;;;;;;;4.70;2.05;;;;;;;;;;4967571;28;20423;-83
2023/08/30 11:15:59;;;;;;;4.03;1.92;;;;;;;;;;4968413;28;20058;-84
2023/08/30 11:18:27;;;;;;;3.35;1.73;;;;;;;;;;4968715;28;20042;-84
2023/08/30 11:21:00;;;;;;;4.10;2.17;;;;;;;;;;4955089;28;20082;-82
2023/08/30 11:23:25;;;;;;;6.95;3.53;;;;;;;;;;4981104;28;20110;-83
2023/08/30 11:25:51;;;;;;;5.10;2.63;;;;;;;;;;4997663;28;20038;-84
2023/08/30 11:28:24;;;;;;;2.78;1.80;;;;;;;;;;4982586;28;20110;-83
2023/08/30 11:30:54;;;;;;;4.25;1.90;;;;;;;;;;4965876;28;20030;-84
2023/08/30 11:33:21;;;;;;;5.13;1.50;;;;;;;;;;4964643;28;20035;-82
2023/08/30 11:35:51;;;;;;;2.28;1.40;;;;;;;;;;4977253;28;20097;-83
2023/08/30 11:38:18;;;;;;;5.22;1.60;;;;;;;;;;4966304;28;20034;-84
2023/08/30 11:40:44;;;;;;;4.15;1.20;;;;;;;;;;4966149;28;20061;-83
2023/08/30 11:43:10;;;;;;;5.65;1.48;;;;;;;;;;4982560;28;20030;-84
2023/08/30 11:45:36;;;;;;;6.15;1.75;;;;;;;;;;4966779;28;20106;-83
2023/08/30 11:48:02;;;;;;;3.97;1.30;;;;;;;;;;4935875;28;20089;-83
2023/08/30 11:50:28;;;;;;;4.32;1.20;;;;;;;;;;4967741;28;20037;-84
2023/08/30 11:52:53;;;;;;;3.53;1.30;;;;;;;;;;4982219;28;20039;-83
2023/08/30 11:55:22;;;;;;;4.13;1.30;;;;;;;;;;4981929;28;20031;-83
2023/08/30 11:57:48;;;;;;;3.40;1.52;;;;;;;;;;4966675;28;20062;-84
2023/08/30 12:00:14;;;;;;;3.53;1.40;;;;;;;;;;4949882;28;20038;-82
2023/08/30 12:02:44;;;;;;;2.40;1.20;;;;;;;;;;4933495;28;20069;-84
2023/08/30 12:05:13;;;;;;;4.93;1.40;;;;;;;;;;4966656;28;20085;-84
2023/08/30 12:07:42;;;;;;;5.35;1.30;;;;;;;;;;4949951;28;20043;-85
2023/08/30 12:10:08;;;;;;;3.03;1.25;;;;;;;;;;4949846;28;20050;-84
2023/08/30 12:12:36;;;;;;;5.97;1.40;;;;;;;;;;4949846;28;20038;-83
2023/08/30 12:15:08;;;;;;;2.33;1.10;;;;;;;;;;4950404;28;20031;-83
2023/08/30 12:17:34;;;;;;;2.70;1.23;;;;;;;;;;4968791;28;20082;-84
2023/08/30 12:20:00;;;;;;;2.75;1.27;;;;;;;;;;4969083;28;20062;-84
2023/08/30 12:22:41;;;;;;;3.28;1.48;;;;;;;;;;4949232;28;20109;-82
2023/08/30 12:25:20;;;;;;;4.15;1.20;;;;;;;;;;4964419;28;20046;-83
2023/08/30 12:27:46;;;;;;;5.63;1.40;;;;;;;;;;4963762;28;20047;-83
2023/08/30 12:30:13;;;;;;;4.55;1.33;;;;;;;;;;4979502;28;20082;-83
2023/08/30 12:32:38;;;;;;;3.78;1.27;;;;;;;;;;4965152;28;20039;-82
2023/08/30 12:35:04;;;;;;;3.17;1.20;;;;;;;;;;4978575;28;20038;-84
2023/08/30 12:37:30;;;;;;;4.35;1.05;;;;;;;;;;4962723;28;20394;-83
2023/08/30 12:39:55;;;;;;;4.05;1.67;;;;;;;;;;4962610;28;20034;-83
2023/08/30 12:42:21;;;;;;;3.42;1.10;;;;;;;;;;4963428;28;20070;-81
2023/08/30 12:44:46;;;;;;;3.83;1.02;;;;;;;;;;4979507;28;20056;-82
2023/08/30 12:47:13;;;;;;;4.28;1.27;;;;;;;;;;4981009;28;20058;-84
2023/08/30 12:49:39;;;;;;;3.50;1.20;;;;;;;;;;4979590;28;20026;-82
2023/08/30 12:52:05;;;;;;;3.33;1.25;;;;;;;;;;4963530;28;20049;-83
2023/08/30 12:54:31;;;;;;;2.63;1.10;;;;;;;;;;4980347;28;20169;-84
2023/08/30 12:56:56;;;;;;;3.17;1.17;;;;;;;;;;4979944;28;20038;-83
2023/08/30 12:59:23;;;;;;;4.15;1.23;;;;;;;;;;4980245;28;20072;-83
2023/08/30 13:01:48;;;;;;;2.67;1.10;;;;;;;;;;4964866;28;20186;-83
2023/08/30 13:04:14;;;;;;;3.65;1.38;;;;;;;;;;4947755;28;20026;-82
2023/08/30 13:06:39;;;;;;;3.63;1.00;;;;;;;;;;4979594;28;20494;-83
2023/08/30 13:09:05;;;;;;;4.60;1.08;;;;;;;;;;4981024;28;20030;-83
2023/08/30 13:11:32;;;;;;;5.15;1.33;;;;;;;;;;4948301;28;20035;-83
2023/08/30 13:13:58;;;;;;;3.58;1.23;;;;;;;;;;4980089;28;20031;-81
2023/08/30 13:16:25;;;;;;;2.78;1.05;;;;;;;;;;4981880;28;20066;-81
2023/08/30 13:18:52;;;;;;;3.55;1.30;;;;;;;;;;4981431;28;20035;-84
2023/08/30 13:21:18;;;;;;;3.75;1.40;;;;;;;;;;4965045;28;20069;-82
2023/08/30 13:23:43;;;;;;;3.50;1.15;;;;;;;;;;4966210;28;20031;-83
2023/08/30 13:26:09;;;;;;;4.60;1.20;;;;;;;;;;4964813;28;20148;-83
2023/08/30 13:28:35;;;;;;;3.22;1.08;;;;;;;;;;4964585;28;20105;-82
2023/08/30 13:31:00;;;;;;;5.05;1.20;;;;;;;;;;4980565;28;20038;-84
2023/08/30 13:33:27;;;;;;;3.92;1.13;;;;;;;;;;4981484;28;20522;-83
2023/08/30 13:35:52;;;;;;;5.65;1.38;;;;;;;;;;4979933;28;20038;-83
2023/08/30 13:38:18;;;;;;;4.85;1.40;;;;;;;;;;4979803;28;20471;-84
2023/08/30 13:40:44;;;;;;;4.28;1.20;;;;;;;;;;4963816;28;20035;-83
2023/08/30 13:43:09;;;;;;;5.43;1.15;;;;;;;;;;4981506;28;20038;-83
2023/08/30 13:45:35;;;;;;;4.90;1.10;;;;;;;;;;4964584;28;20027;-84
2023/08/30 13:48:02;;;;;;;3.75;1.10;;;;;;;;;;4980800;28;20098;-83
2023/08/30 13:50:32;;;;;;;2.28;0.88;;;;;;;;;;4981298;28;20046;-82
2023/08/30 13:52:57;;;;;;;2.28;1.00;;;;;;;;;;4950404;28;20035;-82
2023/08/30 13:55:23;;;;;;;3.30;1.02;;;;;;;;;;4969177;28;20046;-83
2023/08/30 13:57:49;;;;;;;2.17;1.00;;;;;;;;;;4973522;28;20098;-83
2023/08/30 14:00:16;;;;;;;2.28;0.93;;;;;;;;;;4977002;28;20026;-81
2023/08/30 14:02:41;;;;;;;2.83;1.00;;;;;;;;;;4996895;28;20031;-83
2023/08/30 14:05:07;;;;;;;2.85;1.00;;;;;;;;;;4999475;28;20037;-84
2023/08/30 14:07:33;;;;;;;2.35;1.10;;;;;;;;;;4999832;28;20015;-83
2023/08/30 14:09:59;;;;;;;4.32;1.38;;;;;;;;;;4999228;28;20038;-82
2023/08/30 14:12:25;;;;;;;3.58;1.17;;;;;;;;;;4983245;28;20066;-82
2023/08/30 14:14:53;;;;;;;2.70;1.15;;;;;;;;;;4980639;28;20046;-83
2023/08/30 14:17:19;;;;;;;4.90;1.48;;;;;;;;;;4969340;28;20046;-82
2023/08/30 14:19:44;;;;;;;2.38;1.08;;;;;;;;;;4950661;28;20114;-82
2023/08/30 14:22:10;;;;;;;2.35;1.05;;;;;;;;;;4983089;28;20098;-83
2023/08/30 14:24:35;;;;;;;1.52;0.77;;;;;;;;;;4983888;28;20046;-83
2023/08/30 14:27:03;;;;;;;3.20;1.10;;;;;;;;;;4983221;28;20069;-82
2023/08/30 14:29:29;;;;;;;2.60;1.20;;;;;;;;;;4986384;28;20041;-83
2023/08/30 14:31:54;;;;;;;1.55;0.90;;;;;;;;;;4983767;28;20031;-82
2023/08/30 14:34:21;;;;;;;1.80;0.93;;;;;;;;;;4984781;28;20034;-84
2023/08/30 14:36:48;;;;;;;3.63;1.20;;;;;;;;;;4967269;28;20043;-84
2023/08/30 14:39:14;;;;;;;3.20;1.20;;;;;;;;;;4967120;28;20085;-82
2023/08/30 14:41:39;;;;;;;3.60;1.42;;;;;;;;;;4984977;28;20034;-83